N112PZ KADS-KRBD
Flight info
| Callsign | N112PZ |
|---|---|
| Flight time | 0h 12m |
| Altitude | VFR/035 |
| Route | |
| Aircraft | C172/L-VGDW/C |
Departure
| Time | 2026-04-26 20:51 |
|---|---|
| Airport | Addison Airport (KADS) |
Arrival
| Time | 2026-04-26 21:04 |
|---|---|
| Airport | Dallas Executive Airport (KRBD) |
| Time | Latitude | Longitude | Altitude | Speed | Heading |
|---|---|---|---|---|---|
| 2026-04-26 20:42 | 32.96650 | -96.83409 | 638 ft | 0 kts | 232° |
| 2026-04-26 20:44 | 32.96646 | -96.83421 | 638 ft | 9 kts | 250° |
| 2026-04-26 20:44 | 32.96696 | -96.83472 | 638 ft | 10 kts | 344° |
| 2026-04-26 20:44 | 32.96757 | -96.83502 | 638 ft | 9 kts | 341° |
| 2026-04-26 20:44 | 32.96810 | -96.83523 | 638 ft | 7 kts | 339° |
| 2026-04-26 20:45 | 32.96851 | -96.83542 | 638 ft | 6 kts | 341° |
| 2026-04-26 20:45 | 32.96882 | -96.83554 | 639 ft | 4 kts | 337° |
| 2026-04-26 20:45 | 32.96905 | -96.83564 | 639 ft | 5 kts | 340° |
| 2026-04-26 20:45 | 32.96956 | -96.83587 | 639 ft | 9 kts | 338° |
| 2026-04-26 20:46 | 32.97008 | -96.83609 | 639 ft | 7 kts | 339° |
| 2026-04-26 20:46 | 32.97051 | -96.83628 | 639 ft | 6 kts | 338° |
| 2026-04-26 20:46 | 32.97108 | -96.83652 | 639 ft | 10 kts | 341° |
| 2026-04-26 20:46 | 32.97166 | -96.83678 | 639 ft | 8 kts | 338° |
| 2026-04-26 20:47 | 32.97212 | -96.83698 | 639 ft | 6 kts | 339° |
| 2026-04-26 20:47 | 32.97238 | -96.83709 | 639 ft | 6 kts | 339° |
| 2026-04-26 20:47 | 32.97317 | -96.83744 | 639 ft | 12 kts | 340° |
| 2026-04-26 20:47 | 32.97398 | -96.83778 | 639 ft | 12 kts | 338° |
| 2026-04-26 20:48 | 32.97470 | -96.83810 | 639 ft | 10 kts | 339° |
| 2026-04-26 20:48 | 32.97553 | -96.83847 | 639 ft | 16 kts | 338° |
| 2026-04-26 20:48 | 32.97653 | -96.83890 | 638 ft | 15 kts | 340° |
| 2026-04-26 20:48 | 32.97743 | -96.83930 | 638 ft | 13 kts | 339° |
| 2026-04-26 20:49 | 32.97784 | -96.83960 | 638 ft | 0 kts | 292° |
| 2026-04-26 20:49 | 32.97786 | -96.83979 | 639 ft | 8 kts | 273° |
| 2026-04-26 20:49 | 32.97763 | -96.84034 | 639 ft | 6 kts | 211° |
| 2026-04-26 20:50 | 32.97684 | -96.84008 | 639 ft | 30 kts | 153° |
| 2026-04-26 20:50 | 32.97361 | -96.83858 | 651 ft | 65 kts | 166° |
| 2026-04-26 20:50 | 32.96892 | -96.83644 | 745 ft | 79 kts | 164° |
| 2026-04-26 20:50 | 32.96408 | -96.83447 | 1082 ft | 68 kts | 167° |
| 2026-04-26 20:51 | 32.96022 | -96.83308 | 1423 ft | 50 kts | 165° |
| 2026-04-26 20:51 | 32.95631 | -96.83087 | 1478 ft | 72 kts | 162° |
| 2026-04-26 20:51 | 32.95165 | -96.82836 | 1633 ft | 75 kts | 162° |
| 2026-04-26 20:51 | 32.94658 | -96.82727 | 1753 ft | 81 kts | 181° |
| 2026-04-26 20:52 | 32.94050 | -96.82762 | 1748 ft | 95 kts | 190° |
| 2026-04-26 20:52 | 32.93446 | -96.82966 | 2029 ft | 75 kts | 196° |
| 2026-04-26 20:52 | 32.93014 | -96.83195 | 2264 ft | 69 kts | 195° |
| 2026-04-26 20:52 | 32.92534 | -96.83442 | 2325 ft | 85 kts | 197° |
| 2026-04-26 20:53 | 32.92003 | -96.83653 | 2581 ft | 72 kts | 188° |
| 2026-04-26 20:53 | 32.91534 | -96.83766 | 2785 ft | 69 kts | 189° |
| 2026-04-26 20:53 | 32.91060 | -96.83875 | 2948 ft | 69 kts | 189° |
| 2026-04-26 20:53 | 32.90592 | -96.83980 | 3087 ft | 69 kts | 189° |
| 2026-04-26 20:54 | 32.90128 | -96.84094 | 3233 ft | 68 kts | 191° |
| 2026-04-26 20:54 | 32.89657 | -96.84193 | 3422 ft | 67 kts | 188° |
| 2026-04-26 20:54 | 32.89154 | -96.84317 | 3494 ft | 83 kts | 189° |
| 2026-04-26 20:54 | 32.88549 | -96.84477 | 3501 ft | 90 kts | 190° |
| 2026-04-26 20:55 | 32.87952 | -96.84624 | 3501 ft | 86 kts | 189° |
| 2026-04-26 20:55 | 32.87368 | -96.84743 | 3503 ft | 85 kts | 189° |
| 2026-04-26 20:55 | 32.86773 | -96.84870 | 3494 ft | 87 kts | 188° |
| 2026-04-26 20:55 | 32.86181 | -96.85030 | 3495 ft | 88 kts | 189° |
| 2026-04-26 20:56 | 32.85591 | -96.85178 | 3495 ft | 85 kts | 190° |
| 2026-04-26 20:56 | 32.85004 | -96.85304 | 3492 ft | 86 kts | 188° |
| 2026-04-26 20:56 | 32.84419 | -96.85451 | 3493 ft | 85 kts | 190° |
| 2026-04-26 20:56 | 32.83847 | -96.85593 | 3498 ft | 86 kts | 191° |
| 2026-04-26 20:57 | 32.83263 | -96.85730 | 3498 ft | 86 kts | 189° |
| 2026-04-26 20:57 | 32.82680 | -96.85864 | 3489 ft | 83 kts | 190° |
| 2026-04-26 20:57 | 32.82124 | -96.85990 | 3481 ft | 79 kts | 192° |
| 2026-04-26 20:57 | 32.81611 | -96.86172 | 3486 ft | 76 kts | 194° |
| 2026-04-26 20:58 | 32.81090 | -96.86339 | 3545 ft | 77 kts | 195° |
| 2026-04-26 20:58 | 32.80538 | -96.86466 | 3388 ft | 92 kts | 192° |
| 2026-04-26 20:58 | 32.79932 | -96.86587 | 3388 ft | 79 kts | 179° |
| 2026-04-26 20:58 | 32.79377 | -96.86569 | 3301 ft | 80 kts | 180° |
| 2026-04-26 20:59 | 32.78823 | -96.86505 | 3295 ft | 81 kts | 185° |
| 2026-04-26 20:59 | 32.78261 | -96.86539 | 3373 ft | 79 kts | 182° |
| 2026-04-26 20:59 | 32.77690 | -96.86514 | 3272 ft | 89 kts | 182° |
| 2026-04-26 20:59 | 32.77086 | -96.86598 | 3231 ft | 86 kts | 188° |
| 2026-04-26 21:00 | 32.76483 | -96.86648 | 3215 ft | 88 kts | 174° |
| 2026-04-26 21:00 | 32.75877 | -96.86587 | 3195 ft | 87 kts | 184° |
| 2026-04-26 21:00 | 32.75300 | -96.86651 | 3120 ft | 74 kts | 178° |
| 2026-04-26 21:00 | 32.74758 | -96.86662 | 2852 ft | 84 kts | 182° |
| 2026-04-26 21:01 | 32.74148 | -96.86697 | 2324 ft | 103 kts | 195° |
| 2026-04-26 21:01 | 32.73401 | -96.86725 | 1831 ft | 110 kts | 175° |
| 2026-04-26 21:01 | 32.72681 | -96.86661 | 1697 ft | 103 kts | 183° |
| 2026-04-26 21:01 | 32.71975 | -96.86660 | 1486 ft | 99 kts | 182° |
| 2026-04-26 21:02 | 32.71345 | -96.86691 | 1211 ft | 80 kts | 182° |
| 2026-04-26 21:02 | 32.70850 | -96.86675 | 1101 ft | 65 kts | 179° |
| 2026-04-26 21:02 | 32.70433 | -96.86646 | 1080 ft | 53 kts | 176° |
| 2026-04-26 21:02 | 32.70060 | -96.86654 | 1013 ft | 52 kts | 184° |
| 2026-04-26 21:03 | 32.69689 | -96.86666 | 890 ft | 52 kts | 182° |
| 2026-04-26 21:03 | 32.69295 | -96.86671 | 801 ft | 59 kts | 187° |
| 2026-04-26 21:03 | 32.68865 | -96.86661 | 750 ft | 64 kts | 172° |
| 2026-04-26 21:03 | 32.68449 | -96.86686 | 672 ft | 54 kts | 178° |
| 2026-04-26 21:04 | 32.68158 | -96.86682 | 659 ft | 31 kts | 180° |
| 2026-04-26 21:04 | 32.68033 | -96.86662 | 658 ft | 11 kts | 93° |
| 2026-04-26 21:04 | 32.68049 | -96.86611 | 658 ft | 0 kts | 85° |
| 2026-04-26 21:04 | 32.68049 | -96.86610 | 658 ft | 0 kts | 94° |
| 2026-04-26 21:05 | 32.68048 | -96.86610 | 658 ft | 0 kts | 102° |
| 2026-04-26 21:06 | 32.68033 | -96.86581 | 658 ft | 5 kts | 132° |
| 2026-04-26 21:07 | 32.68025 | -96.86540 | 658 ft | 7 kts | 47° |
| 2026-04-26 21:07 | 32.68016 | -96.86521 | 658 ft | 0 kts | 219° |